sensor_id;sensor_type;location;lat;lon;timestamp;temperature;humidity
578;DHT22;275;48.492;9.214;2022-11-03T00:01:39;11.60;41.30
578;DHT22;275;48.492;9.214;2022-11-03T00:04:07;11.80;41.00
578;DHT22;275;48.492;9.214;2022-11-03T00:06:35;11.80;40.80
578;DHT22;275;48.492;9.214;2022-11-03T00:09:05;12.00;40.80
578;DHT22;275;48.492;9.214;2022-11-03T00:11:33;12.10;40.70
578;DHT22;275;48.492;9.214;2022-11-03T00:13:59;12.00;40.70
578;DHT22;275;48.492;9.214;2022-11-03T00:16:26;12.00;40.30
578;DHT22;275;48.492;9.214;2022-11-03T00:18:53;12.00;40.20
578;DHT22;275;48.492;9.214;2022-11-03T00:21:20;11.90;39.70
578;DHT22;275;48.492;9.214;2022-11-03T00:23:47;11.80;40.00
578;DHT22;275;48.492;9.214;2022-11-03T00:26:17;11.70;40.20
578;DHT22;275;48.492;9.214;2022-11-03T00:28:46;11.50;40.20
578;DHT22;275;48.492;9.214;2022-11-03T00:31:15;11.60;39.70
578;DHT22;275;48.492;9.214;2022-11-03T00:33:43;11.50;39.70
578;DHT22;275;48.492;9.214;2022-11-03T00:36:12;11.40;40.20
578;DHT22;275;48.492;9.214;2022-11-03T00:38:39;11.40;39.90
578;DHT22;275;48.492;9.214;2022-11-03T00:41:06;11.30;39.90
578;DHT22;275;48.492;9.214;2022-11-03T00:43:34;11.00;40.40
578;DHT22;275;48.492;9.214;2022-11-03T00:46:02;11.00;40.90
578;DHT22;275;48.492;9.214;2022-11-03T00:48:29;10.90;41.30
578;DHT22;275;48.492;9.214;2022-11-03T00:51:05;10.90;41.70
578;DHT22;275;48.492;9.214;2022-11-03T00:53:34;10.80;42.20
578;DHT22;275;48.492;9.214;2022-11-03T00:56:01;10.90;42.10
578;DHT22;275;48.492;9.214;2022-11-03T00:58:28;10.80;42.10
578;DHT22;275;48.492;9.214;2022-11-03T01:01:00;10.90;41.90
578;DHT22;275;48.492;9.214;2022-11-03T01:03:27;11.00;41.70
578;DHT22;275;48.492;9.214;2022-11-03T01:05:54;11.10;41.60
578;DHT22;275;48.492;9.214;2022-11-03T01:08:38;11.10;41.40
578;DHT22;275;48.492;9.214;2022-11-03T01:11:07;11.40;41.00
578;DHT22;275;48.492;9.214;2022-11-03T01:13:51;11.40;40.70
578;DHT22;275;48.492;9.214;2022-11-03T01:16:20;11.20;41.00
578;DHT22;275;48.492;9.214;2022-11-03T01:18:47;11.20;41.00
578;DHT22;275;48.492;9.214;2022-11-03T01:21:14;11.10;41.10
578;DHT22;275;48.492;9.214;2022-11-03T01:23:40;11.10;41.70
578;DHT22;275;48.492;9.214;2022-11-03T01:26:09;11.00;41.70
578;DHT22;275;48.492;9.214;2022-11-03T01:28:36;11.10;41.40
578;DHT22;275;48.492;9.214;2022-11-03T01:31:03;11.10;41.00
578;DHT22;275;48.492;9.214;2022-11-03T01:33:31;10.90;41.20
578;DHT22;275;48.492;9.214;2022-11-03T01:35:58;10.90;41.20
578;DHT22;275;48.492;9.214;2022-11-03T01:38:25;10.70;41.70
578;DHT22;275;48.492;9.214;2022-11-03T01:40:52;10.80;41.40
578;DHT22;275;48.492;9.214;2022-11-03T01:43:21;10.90;41.00
578;DHT22;275;48.492;9.214;2022-11-03T01:45:51;10.90;40.70
578;DHT22;275;48.492;9.214;2022-11-03T01:48:19;10.80;40.60
578;DHT22;275;48.492;9.214;2022-11-03T01:50:49;10.50;41.30
578;DHT22;275;48.492;9.214;2022-11-03T01:53:17;10.50;41.40
578;DHT22;275;48.492;9.214;2022-11-03T01:55:46;10.50;41.50
578;DHT22;275;48.492;9.214;2022-11-03T01:58:17;10.70;40.90
578;DHT22;275;48.492;9.214;2022-11-03T02:00:47;10.80;40.30
578;DHT22;275;48.492;9.214;2022-11-03T02:03:14;10.80;40.40
578;DHT22;275;48.492;9.214;2022-11-03T02:05:43;10.50;41.00
578;DHT22;275;48.492;9.214;2022-11-03T02:08:15;10.50;41.10
578;DHT22;275;48.492;9.214;2022-11-03T02:10:46;10.40;41.30
578;DHT22;275;48.492;9.214;2022-11-03T02:13:17;10.50;40.90
578;DHT22;275;48.492;9.214;2022-11-03T02:15:45;10.50;41.00
578;DHT22;275;48.492;9.214;2022-11-03T02:18:13;10.50;40.90
578;DHT22;275;48.492;9.214;2022-11-03T02:20:41;10.50;40.90
578;DHT22;275;48.492;9.214;2022-11-03T02:23:26;10.40;41.10
578;DHT22;275;48.492;9.214;2022-11-03T02:25:57;10.50;40.90
578;DHT22;275;48.492;9.214;2022-11-03T02:28:27;10.40;41.00
578;DHT22;275;48.492;9.214;2022-11-03T02:31:01;10.40;41.10
578;DHT22;275;48.492;9.214;2022-11-03T02:33:36;10.20;41.90
578;DHT22;275;48.492;9.214;2022-11-03T02:36:09;10.10;42.00
578;DHT22;275;48.492;9.214;2022-11-03T02:38:49;10.20;41.80
578;DHT22;275;48.492;9.214;2022-11-03T02:41:21;10.20;42.10
578;DHT22;275;48.492;9.214;2022-11-03T02:43:49;10.40;41.20
578;DHT22;275;48.492;9.214;2022-11-03T02:46:17;10.50;40.90
578;DHT22;275;48.492;9.214;2022-11-03T02:48:45;10.50;40.60
578;DHT22;275;48.492;9.214;2022-11-03T02:51:12;10.30;41.30
578;DHT22;275;48.492;9.214;2022-11-03T02:53:43;10.20;41.10
578;DHT22;275;48.492;9.214;2022-11-03T02:56:15;10.30;41.20
578;DHT22;275;48.492;9.214;2022-11-03T02:58:49;10.30;40.70
578;DHT22;275;48.492;9.214;2022-11-03T03:01:23;10.40;40.80
578;DHT22;275;48.492;9.214;2022-11-03T03:03:53;10.30;41.00
578;DHT22;275;48.492;9.214;2022-11-03T03:06:23;10.30;41.10
578;DHT22;275;48.492;9.214;2022-11-03T03:08:55;9.80;43.40
578;DHT22;275;48.492;9.214;2022-11-03T03:11:24;9.50;44.90
578;DHT22;275;48.492;9.214;2022-11-03T03:14:07;9.70;44.20
578;DHT22;275;48.492;9.214;2022-11-03T03:16:40;10.20;41.90
578;DHT22;275;48.492;9.214;2022-11-03T03:19:15;10.20;42.00
578;DHT22;275;48.492;9.214;2022-11-03T03:21:45;10.40;41.10
578;DHT22;275;48.492;9.214;2022-11-03T03:24:18;10.60;40.40
578;DHT22;275;48.492;9.214;2022-11-03T03:26:47;10.50;39.90
578;DHT22;275;48.492;9.214;2022-11-03T03:29:19;10.40;39.80
578;DHT22;275;48.492;9.214;2022-11-03T03:31:52;10.40;39.40
578;DHT22;275;48.492;9.214;2022-11-03T03:34:22;10.30;39.50
578;DHT22;275;48.492;9.214;2022-11-03T03:36:50;10.10;40.00
578;DHT22;275;48.492;9.214;2022-11-03T03:39:19;10.20;39.70
578;DHT22;275;48.492;9.214;2022-11-03T03:41:48;10.20;39.80
578;DHT22;275;48.492;9.214;2022-11-03T03:44:17;9.70;42.00
578;DHT22;275;48.492;9.214;2022-11-03T03:46:48;9.70;42.00
578;DHT22;275;48.492;9.214;2022-11-03T03:49:16;9.70;41.70
578;DHT22;275;48.492;9.214;2022-11-03T03:51:43;9.80;41.60
578;DHT22;275;48.492;9.214;2022-11-03T03:54:11;9.80;41.40
578;DHT22;275;48.492;9.214;2022-11-03T03:56:42;9.70;41.50
578;DHT22;275;48.492;9.214;2022-11-03T03:59:09;9.60;41.80
578;DHT22;275;48.492;9.214;2022-11-03T04:01:37;9.50;41.80
578;DHT22;275;48.492;9.214;2022-11-03T04:04:04;9.40;42.20
578;DHT22;275;48.492;9.214;2022-11-03T04:06:31;9.30;42.30
578;DHT22;275;48.492;9.214;2022-11-03T04:08:57;9.40;42.00
578;DHT22;275;48.492;9.214;2022-11-03T04:11:24;9.40;42.20
578;DHT22;275;48.492;9.214;2022-11-03T04:14:09;9.60;41.80
578;DHT22;275;48.492;9.214;2022-11-03T04:16:55;9.40;42.10
578;DHT22;275;48.492;9.214;2022-11-03T04:19:39;9.50;41.80
578;DHT22;275;48.492;9.214;2022-11-03T04:22:27;9.50;42.00
578;DHT22;275;48.492;9.214;2022-11-03T04:24:57;9.50;41.90
578;DHT22;275;48.492;9.214;2022-11-03T04:27:28;9.30;42.50
578;DHT22;275;48.492;9.214;2022-11-03T04:29:57;9.30;42.50
578;DHT22;275;48.492;9.214;2022-11-03T04:32:28;9.40;42.40
578;DHT22;275;48.492;9.214;2022-11-03T04:34:55;9.50;42.00
578;DHT22;275;48.492;9.214;2022-11-03T04:37:26;9.50;41.80
578;DHT22;275;48.492;9.214;2022-11-03T04:39:54;9.50;41.80
578;DHT22;275;48.492;9.214;2022-11-03T04:42:22;9.70;41.80
578;DHT22;275;48.492;9.214;2022-11-03T04:44:50;9.50;41.80
578;DHT22;275;48.492;9.214;2022-11-03T04:47:17;9.60;41.40
578;DHT22;275;48.492;9.214;2022-11-03T04:49:46;9.60;41.30
578;DHT22;275;48.492;9.214;2022-11-03T04:52:15;9.60;41.30
578;DHT22;275;48.492;9.214;2022-11-03T04:54:43;9.60;40.90
578;DHT22;275;48.492;9.214;2022-11-03T04:57:11;9.50;41.00
578;DHT22;275;48.492;9.214;2022-11-03T04:59:39;9.50;41.00
578;DHT22;275;48.492;9.214;2022-11-03T05:02:11;9.20;41.10
578;DHT22;275;48.492;9.214;2022-11-03T05:04:39;9.30;41.10
578;DHT22;275;48.492;9.214;2022-11-03T05:07:21;9.40;40.70
578;DHT22;275;48.492;9.214;2022-11-03T05:09:48;9.20;41.40
578;DHT22;275;48.492;9.214;2022-11-03T05:12:15;9.20;41.40
578;DHT22;275;48.492;9.214;2022-11-03T05:14:43;9.00;42.10
578;DHT22;275;48.492;9.214;2022-11-03T05:17:20;9.20;41.70
578;DHT22;275;48.492;9.214;2022-11-03T05:19:48;9.20;41.60
578;DHT22;275;48.492;9.214;2022-11-03T05:22:19;9.20;41.60
578;DHT22;275;48.492;9.214;2022-11-03T05:24:49;9.30;41.00
578;DHT22;275;48.492;9.214;2022-11-03T05:27:18;9.30;40.80
578;DHT22;275;48.492;9.214;2022-11-03T05:29:46;9.20;41.00
578;DHT22;275;48.492;9.214;2022-11-03T05:32:17;9.20;41.10
578;DHT22;275;48.492;9.214;2022-11-03T05:34:46;9.20;41.20
578;DHT22;275;48.492;9.214;2022-11-03T05:37:24;8.90;41.00
578;DHT22;275;48.492;9.214;2022-11-03T05:39:53;8.80;41.50
578;DHT22;275;48.492;9.214;2022-11-03T05:42:29;8.80;41.30
578;DHT22;275;48.492;9.214;2022-11-03T05:44:57;8.70;41.60
578;DHT22;275;48.492;9.214;2022-11-03T05:47:27;8.80;41.20
578;DHT22;275;48.492;9.214;2022-11-03T05:50:00;8.80;41.00
578;DHT22;275;48.492;9.214;2022-11-03T05:52:33;8.80;40.80
578;DHT22;275;48.492;9.214;2022-11-03T05:55:01;9.00;40.60
578;DHT22;275;48.492;9.214;2022-11-03T05:57:29;8.90;41.00
578;DHT22;275;48.492;9.214;2022-11-03T05:59:56;8.70;41.60
578;DHT22;275;48.492;9.214;2022-11-03T06:02:35;8.90;41.40
578;DHT22;275;48.492;9.214;2022-11-03T06:05:10;9.10;41.50
578;DHT22;275;48.492;9.214;2022-11-03T06:07:41;8.80;42.50
578;DHT22;275;48.492;9.214;2022-11-03T06:10:20;9.00;42.20
578;DHT22;275;48.492;9.214;2022-11-03T06:12:49;8.80;42.50
578;DHT22;275;48.492;9.214;2022-11-03T06:15:26;8.70;43.20
578;DHT22;275;48.492;9.214;2022-11-03T06:17:54;8.40;44.40
578;DHT22;275;48.492;9.214;2022-11-03T06:20:21;8.70;43.80
578;DHT22;275;48.492;9.214;2022-11-03T06:22:50;8.80;43.60
578;DHT22;275;48.492;9.214;2022-11-03T06:25:24;9.00;43.00
578;DHT22;275;48.492;9.214;2022-11-03T06:27:53;8.50;44.60
578;DHT22;275;48.492;9.214;2022-11-03T06:30:23;8.70;44.10
578;DHT22;275;48.492;9.214;2022-11-03T06:32:51;8.90;43.80
578;DHT22;275;48.492;9.214;2022-11-03T06:35:18;9.10;43.10
578;DHT22;275;48.492;9.214;2022-11-03T06:37:45;9.40;42.50
578;DHT22;275;48.492;9.214;2022-11-03T06:40:43;9.60;41.70
578;DHT22;275;48.492;9.214;2022-11-03T06:43:15;9.60;41.10
578;DHT22;275;48.492;9.214;2022-11-03T06:45:48;9.20;41.70
578;DHT22;275;48.492;9.214;2022-11-03T06:48:24;9.20;41.50
578;DHT22;275;48.492;9.214;2022-11-03T06:50:51;9.20;41.30
578;DHT22;275;48.492;9.214;2022-11-03T06:53:20;8.90;42.40
578;DHT22;275;48.492;9.214;2022-11-03T06:55:50;8.80;42.70
578;DHT22;275;48.492;9.214;2022-11-03T06:58:24;8.90;42.50
578;DHT22;275;48.492;9.214;2022-11-03T07:00:54;9.10;42.10
578;DHT22;275;48.492;9.214;2022-11-03T07:03:23;9.20;41.90
578;DHT22;275;48.492;9.214;2022-11-03T07:05:58;9.50;41.10
578;DHT22;275;48.492;9.214;2022-11-03T07:08:27;9.70;40.80
578;DHT22;275;48.492;9.214;2022-11-03T07:11:00;9.60;41.20
578;DHT22;275;48.492;9.214;2022-11-03T07:13:29;9.60;40.80
578;DHT22;275;48.492;9.214;2022-11-03T07:15:57;9.80;40.50
578;DHT22;275;48.492;9.214;2022-11-03T07:18:26;10.00;39.00
578;DHT22;275;48.492;9.214;2022-11-03T07:20:53;10.00;38.50
578;DHT22;275;48.492;9.214;2022-11-03T07:23:23;10.00;37.90
578;DHT22;275;48.492;9.214;2022-11-03T07:25:51;9.90;39.70
578;DHT22;275;48.492;9.214;2022-11-03T07:28:21;10.10;38.20
578;DHT22;275;48.492;9.214;2022-11-03T07:30:49;10.10;38.50
578;DHT22;275;48.492;9.214;2022-11-03T07:33:21;10.20;38.50
578;DHT22;275;48.492;9.214;2022-11-03T07:35:49;10.50;38.00
578;DHT22;275;48.492;9.214;2022-11-03T07:38:19;10.60;37.90
578;DHT22;275;48.492;9.214;2022-11-03T07:40:47;10.70;38.70
578;DHT22;275;48.492;9.214;2022-11-03T07:43:16;11.00;37.50
578;DHT22;275;48.492;9.214;2022-11-03T07:45:47;11.00;37.60
578;DHT22;275;48.492;9.214;2022-11-03T07:48:20;11.10;37.90
578;DHT22;275;48.492;9.214;2022-11-03T07:50:49;11.30;37.50
578;DHT22;275;48.492;9.214;2022-11-03T07:53:20;11.50;37.20
578;DHT22;275;48.492;9.214;2022-11-03T07:55:52;11.50;37.50
578;DHT22;275;48.492;9.214;2022-11-03T07:58:22;11.60;37.60
578;DHT22;275;48.492;9.214;2022-11-03T08:00:53;11.90;36.70
578;DHT22;275;48.492;9.214;2022-11-03T08:03:28;11.80;36.00
578;DHT22;275;48.492;9.214;2022-11-03T08:05:56;11.60;36.70
578;DHT22;275;48.492;9.214;2022-11-03T08:08:23;11.50;37.50
578;DHT22;275;48.492;9.214;2022-11-03T08:10:50;11.60;37.30
578;DHT22;275;48.492;9.214;2022-11-03T08:13:16;11.70;36.90
578;DHT22;275;48.492;9.214;2022-11-03T08:15:43;11.60;37.10
578;DHT22;275;48.492;9.214;2022-11-03T08:18:11;11.80;36.70
578;DHT22;275;48.492;9.214;2022-11-03T08:20:38;11.90;36.50
578;DHT22;275;48.492;9.214;2022-11-03T08:23:05;11.20;37.80
578;DHT22;275;48.492;9.214;2022-11-03T08:25:31;10.70;39.80
578;DHT22;275;48.492;9.214;2022-11-03T08:27:58;11.30;38.80
578;DHT22;275;48.492;9.214;2022-11-03T08:30:26;11.80;37.60
578;DHT22;275;48.492;9.214;2022-11-03T08:33:01;12.20;36.40
578;DHT22;275;48.492;9.214;2022-11-03T08:35:40;12.10;36.40
578;DHT22;275;48.492;9.214;2022-11-03T08:38:06;12.40;36.30
578;DHT22;275;48.492;9.214;2022-11-03T08:40:33;12.70;35.50
578;DHT22;275;48.492;9.214;2022-11-03T08:43:00;13.00;35.10
578;DHT22;275;48.492;9.214;2022-11-03T08:45:27;13.00;35.30
578;DHT22;275;48.492;9.214;2022-11-03T08:47:54;13.00;35.40
578;DHT22;275;48.492;9.214;2022-11-03T08:50:21;13.00;35.40
578;DHT22;275;48.492;9.214;2022-11-03T08:52:50;13.20;35.40
578;DHT22;275;48.492;9.214;2022-11-03T08:55:17;13.40;34.70
578;DHT22;275;48.492;9.214;2022-11-03T08:57:43;13.10;35.50
578;DHT22;275;48.492;9.214;2022-11-03T09:00:11;13.10;35.80
578;DHT22;275;48.492;9.214;2022-11-03T09:02:39;13.40;35.30
578;DHT22;275;48.492;9.214;2022-11-03T09:05:06;13.70;35.00
578;DHT22;275;48.492;9.214;2022-11-03T09:07:33;13.60;35.30
578;DHT22;275;48.492;9.214;2022-11-03T09:10:01;13.20;36.40
578;DHT22;275;48.492;9.214;2022-11-03T09:12:28;13.40;36.30
578;DHT22;275;48.492;9.214;2022-11-03T09:14:54;13.80;35.50
578;DHT22;275;48.492;9.214;2022-11-03T09:17:21;14.10;35.20
578;DHT22;275;48.492;9.214;2022-11-03T09:19:48;14.20;34.80
578;DHT22;275;48.492;9.214;2022-11-03T09:22:14;13.60;35.70
578;DHT22;275;48.492;9.214;2022-11-03T09:24:41;12.60;38.70
578;DHT22;275;48.492;9.214;2022-11-03T09:27:09;12.30;39.50
578;DHT22;275;48.492;9.214;2022-11-03T09:29:36;12.60;39.20
578;DHT22;275;48.492;9.214;2022-11-03T09:32:03;12.90;38.90
578;DHT22;275;48.492;9.214;2022-11-03T09:34:30;13.60;37.10
578;DHT22;275;48.492;9.214;2022-11-03T09:36:57;14.20;36.00
578;DHT22;275;48.492;9.214;2022-11-03T09:39:24;14.50;35.10
578;DHT22;275;48.492;9.214;2022-11-03T09:41:51;14.90;34.20
578;DHT22;275;48.492;9.214;2022-11-03T09:44:20;14.90;34.10
578;DHT22;275;48.492;9.214;2022-11-03T09:46:47;15.10;33.30
578;DHT22;275;48.492;9.214;2022-11-03T09:49:15;15.40;32.90
578;DHT22;275;48.492;9.214;2022-11-03T09:51:42;15.30;33.00
578;DHT22;275;48.492;9.214;2022-11-03T09:54:12;15.30;33.20
578;DHT22;275;48.492;9.214;2022-11-03T09:56:40;15.10;33.60
578;DHT22;275;48.492;9.214;2022-11-03T09:59:13;15.00;34.20
578;DHT22;275;48.492;9.214;2022-11-03T10:01:43;14.60;35.00
578;DHT22;275;48.492;9.214;2022-11-03T10:04:13;14.90;34.50
578;DHT22;275;48.492;9.214;2022-11-03T10:06:41;15.20;33.90
578;DHT22;275;48.492;9.214;2022-11-03T10:09:11;15.40;33.20
578;DHT22;275;48.492;9.214;2022-11-03T10:11:40;15.60;32.80
578;DHT22;275;48.492;9.214;2022-11-03T10:14:09;15.40;33.10
578;DHT22;275;48.492;9.214;2022-11-03T10:16:39;15.50;32.80
578;DHT22;275;48.492;9.214;2022-11-03T10:19:10;15.50;33.20
578;DHT22;275;48.492;9.214;2022-11-03T10:21:37;15.40;33.20
578;DHT22;275;48.492;9.214;2022-11-03T10:24:05;15.70;33.00
578;DHT22;275;48.492;9.214;2022-11-03T10:26:43;15.90;32.20
578;DHT22;275;48.492;9.214;2022-11-03T10:29:16;16.20;32.20
578;DHT22;275;48.492;9.214;2022-11-03T10:31:46;16.20;31.60
578;DHT22;275;48.492;9.214;2022-11-03T10:34:31;16.30;31.50
578;DHT22;275;48.492;9.214;2022-11-03T10:37:17;16.40;31.50
578;DHT22;275;48.492;9.214;2022-11-03T10:39:45;16.30;31.80
578;DHT22;275;48.492;9.214;2022-11-03T10:42:23;16.50;31.30
578;DHT22;275;48.492;9.214;2022-11-03T10:44:52;16.60;31.20
578;DHT22;275;48.492;9.214;2022-11-03T10:47:31;17.00;30.20
578;DHT22;275;48.492;9.214;2022-11-03T10:50:16;17.30;30.20
578;DHT22;275;48.492;9.214;2022-11-03T10:52:44;17.40;29.90
578;DHT22;275;48.492;9.214;2022-11-03T10:55:11;17.30;30.40
578;DHT22;275;48.492;9.214;2022-11-03T10:57:38;17.20;30.60
578;DHT22;275;48.492;9.214;2022-11-03T11:00:08;17.20;30.80
578;DHT22;275;48.492;9.214;2022-11-03T11:02:40;17.00;31.00
578;DHT22;275;48.492;9.214;2022-11-03T11:05:13;16.90;31.40
578;DHT22;275;48.492;9.214;2022-11-03T11:07:42;16.50;32.40
578;DHT22;275;48.492;9.214;2022-11-03T11:10:12;16.30;32.70
578;DHT22;275;48.492;9.214;2022-11-03T11:13:05;16.40;32.70
578;DHT22;275;48.492;9.214;2022-11-03T11:15:38;16.10;32.90
578;DHT22;275;48.492;9.214;2022-11-03T11:18:05;16.00;32.80
578;DHT22;275;48.492;9.214;2022-11-03T11:20:35;16.10;32.70
578;DHT22;275;48.492;9.214;2022-11-03T11:26:28;16.10;32.90
578;DHT22;275;48.492;9.214;2022-11-03T11:29:32;16.20;33.30
578;DHT22;275;48.492;9.214;2022-11-03T11:31:59;16.20;32.50
578;DHT22;275;48.492;9.214;2022-11-03T11:34:46;16.20;33.60
578;DHT22;275;48.492;9.214;2022-11-03T11:37:33;16.70;32.90
578;DHT22;275;48.492;9.214;2022-11-03T11:40:02;17.30;31.90
578;DHT22;275;48.492;9.214;2022-11-03T11:42:29;17.60;31.40
578;DHT22;275;48.492;9.214;2022-11-03T11:45:00;17.80;30.60
578;DHT22;275;48.492;9.214;2022-11-03T11:47:34;17.50;31.50
578;DHT22;275;48.492;9.214;2022-11-03T11:50:24;17.40;31.70
578;DHT22;275;48.492;9.214;2022-11-03T11:52:56;16.80;32.90
578;DHT22;275;48.492;9.214;2022-11-03T11:55:34;17.40;32.50
578;DHT22;275;48.492;9.214;2022-11-03T11:58:05;17.90;30.70
578;DHT22;275;48.492;9.214;2022-11-03T12:00:50;18.20;30.10
578;DHT22;275;48.492;9.214;2022-11-03T12:03:22;18.00;30.40
578;DHT22;275;48.492;9.214;2022-11-03T12:05:50;18.20;30.20
578;DHT22;275;48.492;9.214;2022-11-03T12:08:22;18.40;29.80
578;DHT22;275;48.492;9.214;2022-11-03T12:10:53;18.20;30.00
578;DHT22;275;48.492;9.214;2022-11-03T12:13:35;17.80;30.50
578;DHT22;275;48.492;9.214;2022-11-03T12:16:02;17.70;30.80
578;DHT22;275;48.492;9.214;2022-11-03T12:18:30;17.80;30.60
578;DHT22;275;48.492;9.214;2022-11-03T12:20:57;17.80;30.70
578;DHT22;275;48.492;9.214;2022-11-03T12:23:37;17.70;30.80
578;DHT22;275;48.492;9.214;2022-11-03T12:26:13;17.80;30.60
578;DHT22;275;48.492;9.214;2022-11-03T12:28:40;17.80;30.40
578;DHT22;275;48.492;9.214;2022-11-03T12:31:07;17.30;31.50
578;DHT22;275;48.492;9.214;2022-11-03T12:33:34;17.70;31.20
578;DHT22;275;48.492;9.214;2022-11-03T12:36:01;17.80;31.00
578;DHT22;275;48.492;9.214;2022-11-03T12:38:27;17.90;30.90
578;DHT22;275;48.492;9.214;2022-11-03T12:40:55;18.30;30.20
578;DHT22;275;48.492;9.214;2022-11-03T12:43:22;18.30;30.10
578;DHT22;275;48.492;9.214;2022-11-03T12:45:49;18.10;30.70
578;DHT22;275;48.492;9.214;2022-11-03T12:48:16;18.30;30.30
578;DHT22;275;48.492;9.214;2022-11-03T12:50:44;18.50;29.90
578;DHT22;275;48.492;9.214;2022-11-03T12:53:10;18.60;29.80
578;DHT22;275;48.492;9.214;2022-11-03T12:55:37;18.70;29.70
578;DHT22;275;48.492;9.214;2022-11-03T12:58:05;18.60;29.70
578;DHT22;275;48.492;9.214;2022-11-03T13:00:32;18.60;29.90
578;DHT22;275;48.492;9.214;2022-11-03T13:02:59;18.40;30.20
578;DHT22;275;48.492;9.214;2022-11-03T13:05:25;18.40;30.30
578;DHT22;275;48.492;9.214;2022-11-03T13:07:52;18.40;30.40
578;DHT22;275;48.492;9.214;2022-11-03T13:10:19;18.10;31.00
578;DHT22;275;48.492;9.214;2022-11-03T13:12:46;17.70;32.00
578;DHT22;275;48.492;9.214;2022-11-03T13:15:14;17.80;31.80
578;DHT22;275;48.492;9.214;2022-11-03T13:17:41;18.10;31.00
578;DHT22;275;48.492;9.214;2022-11-03T13:20:09;18.00;31.20
578;DHT22;275;48.492;9.214;2022-11-03T13:22:37;18.10;30.80
578;DHT22;275;48.492;9.214;2022-11-03T13:25:05;18.00;31.40
578;DHT22;275;48.492;9.214;2022-11-03T13:27:31;18.20;30.90
578;DHT22;275;48.492;9.214;2022-11-03T13:29:58;18.20;30.80
578;DHT22;275;48.492;9.214;2022-11-03T13:32:26;18.30;30.70
578;DHT22;275;48.492;9.214;2022-11-03T13:34:53;18.50;30.40
578;DHT22;275;48.492;9.214;2022-11-03T13:37:20;18.60;29.80
578;DHT22;275;48.492;9.214;2022-11-03T13:39:47;18.80;29.10
578;DHT22;275;48.492;9.214;2022-11-03T13:42:13;18.70;28.40
578;DHT22;275;48.492;9.214;2022-11-03T13:44:40;18.60;28.80
578;DHT22;275;48.492;9.214;2022-11-03T13:47:07;18.40;28.90
578;DHT22;275;48.492;9.214;2022-11-03T13:49:35;17.80;29.50
578;DHT22;275;48.492;9.214;2022-11-03T13:52:02;17.60;29.60
578;DHT22;275;48.492;9.214;2022-11-03T13:54:29;17.70;29.50
578;DHT22;275;48.492;9.214;2022-11-03T13:56:56;18.00;29.20
578;DHT22;275;48.492;9.214;2022-11-03T13:59:23;18.30;28.50
578;DHT22;275;48.492;9.214;2022-11-03T14:01:50;18.70;27.90
578;DHT22;275;48.492;9.214;2022-11-03T14:04:16;18.60;28.00
578;DHT22;275;48.492;9.214;2022-11-03T14:06:44;18.40;28.10
578;DHT22;275;48.492;9.214;2022-11-03T14:09:11;18.20;28.20
578;DHT22;275;48.492;9.214;2022-11-03T14:11:38;18.60;27.70
578;DHT22;275;48.492;9.214;2022-11-03T14:14:22;18.60;27.40
578;DHT22;275;48.492;9.214;2022-11-03T14:16:49;19.00;27.30
578;DHT22;275;48.492;9.214;2022-11-03T14:19:16;18.60;27.70
578;DHT22;275;48.492;9.214;2022-11-03T14:21:44;18.70;27.40
578;DHT22;275;48.492;9.214;2022-11-03T14:24:11;18.70;27.40
578;DHT22;275;48.492;9.214;2022-11-03T14:26:37;18.50;27.30
578;DHT22;275;48.492;9.214;2022-11-03T14:29:04;18.20;27.80
578;DHT22;275;48.492;9.214;2022-11-03T14:31:31;18.20;28.00
578;DHT22;275;48.492;9.214;2022-11-03T14:33:58;18.00;28.50
578;DHT22;275;48.492;9.214;2022-11-03T14:36:25;18.40;27.70
578;DHT22;275;48.492;9.214;2022-11-03T14:38:53;18.40;27.60
578;DHT22;275;48.492;9.214;2022-11-03T14:41:20;18.40;27.60
578;DHT22;275;48.492;9.214;2022-11-03T14:44:04;18.30;27.60
578;DHT22;275;48.492;9.214;2022-11-03T14:46:31;17.70;28.70
578;DHT22;275;48.492;9.214;2022-11-03T14:48:57;17.70;28.40
578;DHT22;275;48.492;9.214;2022-11-03T14:51:26;18.10;28.30
578;DHT22;275;48.492;9.214;2022-11-03T14:53:54;18.20;28.30
578;DHT22;275;48.492;9.214;2022-11-03T14:56:22;18.10;28.50
578;DHT22;275;48.492;9.214;2022-11-03T14:58:49;18.00;28.70
578;DHT22;275;48.492;9.214;2022-11-03T15:01:16;17.90;29.00
578;DHT22;275;48.492;9.214;2022-11-03T15:03:43;17.80;29.30
578;DHT22;275;48.492;9.214;2022-11-03T15:06:10;17.30;29.90
578;DHT22;275;48.492;9.214;2022-11-03T15:08:37;17.40;29.80
578;DHT22;275;48.492;9.214;2022-11-03T15:11:06;17.40;29.90
578;DHT22;275;48.492;9.214;2022-11-03T15:13:34;17.40;29.80
578;DHT22;275;48.492;9.214;2022-11-03T15:16:01;17.00;30.10
578;DHT22;275;48.492;9.214;2022-11-03T15:18:28;17.10;30.10
578;DHT22;275;48.492;9.214;2022-11-03T15:20:55;16.50;31.50
578;DHT22;275;48.492;9.214;2022-11-03T15:23:22;16.40;31.90
578;DHT22;275;48.492;9.214;2022-11-03T15:25:49;16.40;32.50
578;DHT22;275;48.492;9.214;2022-11-03T15:28:17;16.20;32.80
578;DHT22;275;48.492;9.214;2022-11-03T15:30:45;16.40;32.70
578;DHT22;275;48.492;9.214;2022-11-03T15:33:12;16.20;33.20
578;DHT22;275;48.492;9.214;2022-11-03T15:35:39;16.00;33.80
578;DHT22;275;48.492;9.214;2022-11-03T15:38:06;15.70;34.80
578;DHT22;275;48.492;9.214;2022-11-03T15:40:32;15.40;35.80
578;DHT22;275;48.492;9.214;2022-11-03T15:42:59;15.30;35.90
578;DHT22;275;48.492;9.214;2022-11-03T15:45:27;15.00;36.60
578;DHT22;275;48.492;9.214;2022-11-03T15:47:54;15.10;36.30
578;DHT22;275;48.492;9.214;2022-11-03T15:50:21;15.10;36.30
578;DHT22;275;48.492;9.214;2022-11-03T15:52:48;15.10;36.00
578;DHT22;275;48.492;9.214;2022-11-03T15:55:15;15.20;35.90
578;DHT22;275;48.492;9.214;2022-11-03T15:57:41;15.40;35.40
578;DHT22;275;48.492;9.214;2022-11-03T16:00:10;15.30;35.30
578;DHT22;275;48.492;9.214;2022-11-03T16:02:38;15.10;35.30
578;DHT22;275;48.492;9.214;2022-11-03T16:05:06;15.70;34.20
578;DHT22;275;48.492;9.214;2022-11-03T16:07:33;16.10;33.00
578;DHT22;275;48.492;9.214;2022-11-03T16:10:00;16.40;32.30
578;DHT22;275;48.492;9.214;2022-11-03T16:12:27;15.70;33.60
578;DHT22;275;48.492;9.214;2022-11-03T16:14:54;15.80;33.10
578;DHT22;275;48.492;9.214;2022-11-03T16:17:20;15.40;34.40
578;DHT22;275;48.492;9.214;2022-11-03T16:19:49;15.40;34.70
578;DHT22;275;48.492;9.214;2022-11-03T16:22:16;15.40;35.10
578;DHT22;275;48.492;9.214;2022-11-03T16:24:43;15.00;36.20
578;DHT22;275;48.492;9.214;2022-11-03T16:27:11;15.10;36.50
578;DHT22;275;48.492;9.214;2022-11-03T16:29:38;14.90;36.70
578;DHT22;275;48.492;9.214;2022-11-03T16:32:05;14.90;36.00
578;DHT22;275;48.492;9.214;2022-11-03T16:34:34;14.80;36.50
578;DHT22;275;48.492;9.214;2022-11-03T16:37:02;14.70;36.40
578;DHT22;275;48.492;9.214;2022-11-03T16:39:29;14.80;36.30
578;DHT22;275;48.492;9.214;2022-11-03T16:41:56;15.00;35.90
578;DHT22;275;48.492;9.214;2022-11-03T16:44:23;15.10;35.50
578;DHT22;275;48.492;9.214;2022-11-03T16:46:50;14.90;36.10
578;DHT22;275;48.492;9.214;2022-11-03T16:49:17;14.90;36.30
578;DHT22;275;48.492;9.214;2022-11-03T16:51:43;14.90;36.60
578;DHT22;275;48.492;9.214;2022-11-03T16:54:11;14.90;36.70
578;DHT22;275;48.492;9.214;2022-11-03T16:56:38;14.80;37.00
578;DHT22;275;48.492;9.214;2022-11-03T16:59:05;14.60;37.20